createdAt,value
2022-09-15T00:00:57.213Z,19.50
2022-09-15T00:03:44.291Z,19.50
2022-09-15T00:06:32.594Z,19.50
2022-09-15T00:09:19.654Z,19.50
2022-09-15T00:12:07.184Z,19.40
2022-09-15T00:14:54.297Z,19.50
2022-09-15T00:17:42.993Z,19.50
2022-09-15T00:20:30.005Z,19.50
2022-09-15T00:23:18.591Z,19.40
2022-09-15T00:26:12.574Z,19.30
2022-09-15T00:29:01.018Z,19.20
2022-09-15T00:31:48.279Z,19.20
2022-09-15T00:34:35.776Z,19.10
2022-09-15T00:37:22.895Z,19.10
2022-09-15T00:40:10.778Z,19.10
2022-09-15T00:42:58.207Z,19.00
2022-09-15T00:45:45.840Z,19.00
2022-09-15T00:48:34.473Z,18.90
2022-09-15T00:51:28.480Z,18.90
2022-09-15T00:54:22.707Z,18.90
2022-09-15T00:57:37.767Z,19.00
2022-09-15T01:00:27.602Z,19.00
2022-09-15T01:03:16.153Z,18.90
2022-09-15T01:06:11.170Z,18.70
2022-09-15T01:09:12.392Z,18.80
2022-09-15T01:12:00.338Z,18.80
2022-09-15T01:14:47.391Z,18.80
2022-09-15T01:17:50.521Z,18.70
2022-09-15T01:20:44.032Z,18.80
2022-09-15T01:23:52.147Z,18.80
2022-09-15T01:26:54.061Z,18.90
2022-09-15T01:29:47.068Z,18.90
2022-09-15T01:33:07.187Z,18.90
2022-09-15T01:36:42.373Z,19.00
2022-09-15T01:39:35.624Z,18.90
2022-09-15T01:42:25.277Z,18.90
2022-09-15T01:45:22.093Z,19.00
2022-09-15T01:48:11.396Z,19.10
2022-09-15T01:51:03.356Z,19.00
2022-09-15T01:53:52.937Z,19.10
2022-09-15T01:56:42.388Z,19.10
2022-09-15T01:59:29.543Z,19.20
2022-09-15T02:02:32.006Z,19.10
2022-09-15T02:05:49.193Z,19.20
2022-09-15T02:08:43.936Z,19.10
2022-09-15T02:11:32.788Z,19.10
2022-09-15T02:14:52.675Z,19.10
2022-09-15T02:17:48.702Z,19.10
2022-09-15T02:20:48.934Z,19.20
2022-09-15T02:23:43.378Z,19.20
2022-09-15T02:26:33.413Z,19.20
2022-09-15T02:29:23.709Z,19.20
2022-09-15T02:32:14.234Z,19.10
2022-09-15T02:35:06.981Z,19.10
2022-09-15T02:37:55.247Z,19.20
2022-09-15T02:40:44.864Z,19.10
2022-09-15T02:43:33.204Z,19.10
2022-09-15T02:46:22.772Z,19.10
2022-09-15T02:49:09.792Z,19.20
2022-09-15T02:51:57.309Z,19.20
2022-09-15T02:54:44.755Z,19.20
2022-09-15T02:57:32.214Z,19.20
2022-09-15T03:00:20.760Z,19.10
2022-09-15T03:03:09.233Z,19.10
2022-09-15T03:06:16.206Z,19.10
2022-09-15T03:09:07.108Z,19.10
2022-09-15T03:11:53.911Z,19.20
2022-09-15T03:14:41.336Z,19.10
2022-09-15T03:17:28.817Z,19.10
2022-09-15T03:20:20.027Z,19.00
2022-09-15T03:23:07.464Z,19.00
2022-09-15T03:25:54.260Z,19.00
2022-09-15T03:28:42.102Z,19.00
2022-09-15T03:31:29.159Z,19.00
2022-09-15T03:34:16.660Z,19.00
2022-09-15T03:37:03.890Z,19.00
2022-09-15T03:39:51.389Z,19.10
2022-09-15T03:45:06.781Z,19.10
2022-09-15T03:47:54.252Z,19.20
2022-09-15T03:50:41.274Z,19.20
2022-09-15T03:53:30.983Z,19.10
2022-09-15T03:56:22.648Z,19.20
2022-09-15T03:59:09.691Z,19.10
2022-09-15T04:01:56.806Z,18.90
2022-09-15T04:04:44.163Z,19.00
2022-09-15T04:07:31.251Z,19.00
2022-09-15T04:10:19.014Z,19.00
2022-09-15T04:13:06.314Z,19.10
2022-09-15T04:16:01.139Z,19.10
2022-09-15T04:18:48.602Z,19.10
2022-09-15T04:21:35.909Z,19.10
2022-09-15T04:24:25.600Z,19.10
2022-09-15T04:27:13.069Z,19.10
2022-09-15T04:30:00.950Z,19.10
2022-09-15T04:32:48.038Z,19.10
2022-09-15T04:35:35.475Z,19.00
2022-09-15T04:38:22.284Z,19.10
2022-09-15T04:41:10.069Z,19.10
2022-09-15T04:43:57.130Z,19.00
2022-09-15T04:46:44.641Z,19.00
2022-09-15T04:49:32.156Z,19.00
2022-09-15T04:52:19.834Z,19.00
2022-09-15T04:55:07.545Z,19.00
2022-09-15T04:57:55.833Z,19.10
2022-09-15T05:00:43.568Z,19.00
2022-09-15T05:03:31.181Z,18.90
2022-09-15T05:06:21.114Z,19.00
2022-09-15T05:09:10.532Z,19.00
2022-09-15T05:11:57.754Z,19.00
2022-09-15T05:14:45.203Z,19.10
2022-09-15T05:17:32.774Z,19.10
2022-09-15T05:20:20.473Z,19.00
2022-09-15T05:23:08.067Z,19.00
2022-09-15T05:25:59.698Z,19.10
2022-09-15T05:28:47.277Z,19.00
2022-09-15T05:31:34.434Z,19.10
2022-09-15T05:34:21.834Z,19.20
2022-09-15T05:37:10.262Z,19.20
2022-09-15T05:39:59.948Z,19.20
2022-09-15T05:42:47.357Z,19.30
2022-09-15T05:45:34.556Z,19.20
2022-09-15T05:48:22.202Z,19.20
2022-09-15T05:51:09.540Z,19.30
2022-09-15T05:53:57.258Z,19.30
2022-09-15T05:56:44.044Z,19.30
2022-09-15T05:59:31.329Z,19.30
2022-09-15T06:02:18.833Z,19.40
2022-09-15T06:05:06.547Z,19.50
2022-09-15T06:07:54.973Z,19.50
2022-09-15T06:10:42.742Z,19.40
2022-09-15T06:13:29.765Z,19.40
2022-09-15T06:16:19.924Z,19.50
2022-09-15T06:19:06.969Z,19.60
2022-09-15T06:21:54.193Z,19.60
2022-09-15T06:24:41.646Z,19.50
2022-09-15T06:27:28.647Z,19.40
2022-09-15T06:30:16.143Z,19.40
2022-09-15T06:33:02.954Z,19.50
2022-09-15T06:35:50.522Z,19.30
2022-09-15T06:38:38.878Z,19.40
2022-09-15T06:41:26.782Z,19.30
2022-09-15T06:44:14.331Z,19.30
2022-09-15T06:47:02.094Z,19.20
2022-09-15T06:49:49.125Z,19.10
2022-09-15T06:52:36.674Z,18.90
2022-09-15T06:55:25.138Z,18.80
2022-09-15T06:58:12.162Z,18.60
2022-09-15T07:01:09.733Z,18.60
2022-09-15T07:03:58.564Z,18.50
2022-09-15T07:06:46.442Z,18.30
2022-09-15T07:09:33.277Z,18.30
2022-09-15T07:12:20.298Z,18.30
2022-09-15T07:15:08.366Z,18.30
2022-09-15T07:17:55.406Z,18.60
2022-09-15T07:20:42.853Z,18.50
2022-09-15T07:23:30.466Z,18.60
2022-09-15T07:26:23.202Z,18.80
2022-09-15T07:29:10.660Z,18.80
2022-09-15T07:31:57.738Z,19.00
2022-09-15T07:34:45.420Z,19.00
2022-09-15T07:37:33.661Z,19.20
2022-09-15T07:40:22.126Z,19.40
2022-09-15T07:43:09.392Z,19.50
2022-09-15T07:46:03.375Z,19.80
2022-09-15T07:48:53.614Z,20.20
2022-09-15T07:51:41.177Z,20.50
2022-09-15T07:54:27.961Z,20.40
2022-09-15T07:57:15.001Z,20.60
2022-09-15T08:00:02.343Z,20.60
2022-09-15T08:02:49.988Z,20.50
2022-09-15T08:05:40.334Z,20.40
2022-09-15T08:08:30.730Z,20.20
2022-09-15T08:11:19.654Z,20.20
2022-09-15T08:14:06.677Z,20.10
2022-09-15T08:16:53.927Z,20.10
2022-09-15T08:19:40.753Z,20.00
2022-09-15T08:22:28.101Z,20.00
2022-09-15T08:25:15.525Z,20.20
2022-09-15T08:28:02.972Z,20.40
2022-09-15T08:30:50.299Z,20.40
2022-09-15T08:33:40.818Z,20.50
2022-09-15T08:36:31.628Z,20.80
2022-09-15T08:39:19.155Z,21.10
2022-09-15T08:42:06.546Z,21.30
2022-09-15T08:45:09.617Z,21.60
2022-09-15T08:48:03.989Z,21.60
2022-09-15T08:50:54.616Z,21.80
2022-09-15T08:53:47.874Z,22.30
2022-09-15T08:56:36.998Z,22.60
2022-09-15T08:59:31.639Z,22.60
2022-09-15T09:02:43.944Z,22.50
2022-09-15T09:05:46.173Z,21.90
2022-09-15T09:08:56.485Z,22.00
2022-09-15T09:11:58.493Z,22.20
2022-09-15T09:14:51.665Z,22.00
2022-09-15T09:18:15.614Z,21.80
2022-09-15T09:21:34.135Z,21.80
2022-09-15T09:24:53.315Z,21.90
2022-09-15T09:27:40.834Z,21.70
2022-09-15T09:30:31.508Z,21.90
2022-09-15T09:33:47.498Z,22.00
2022-09-15T09:36:35.145Z,21.90
2022-09-15T09:39:22.685Z,21.70
2022-09-15T09:42:18.465Z,21.80
2022-09-15T09:45:08.022Z,21.70
2022-09-15T09:48:03.028Z,21.70
2022-09-15T09:50:51.152Z,21.90
2022-09-15T09:53:38.177Z,21.80
2022-09-15T09:56:26.781Z,21.90
2022-09-15T09:59:40.568Z,22.40
2022-09-15T10:02:28.791Z,23.00
2022-09-15T10:05:21.045Z,23.30
2022-09-15T10:08:19.367Z,23.40
2022-09-15T10:11:10.212Z,23.40
2022-09-15T10:13:57.269Z,23.50
2022-09-15T10:16:44.755Z,23.50
2022-09-15T10:19:37.037Z,23.10
2022-09-15T10:22:32.633Z,22.80
2022-09-15T10:25:19.570Z,22.70
2022-09-15T10:28:09.575Z,22.90
2022-09-15T10:31:11.171Z,22.90
2022-09-15T10:33:58.455Z,22.70
2022-09-15T10:36:46.201Z,22.50
2022-09-15T10:39:56.130Z,22.50
2022-09-15T10:42:52.149Z,22.40
2022-09-15T10:45:41.804Z,22.10
2022-09-15T10:48:48.528Z,22.00
2022-09-15T10:51:53.891Z,22.10
2022-09-15T10:55:42.155Z,22.20
2022-09-15T10:58:40.987Z,22.30
2022-09-15T11:01:39.058Z,22.50
2022-09-15T11:04:57.238Z,22.70
2022-09-15T11:08:16.849Z,22.90
2022-09-15T11:11:23.058Z,23.40
2022-09-15T11:14:31.828Z,23.90
2022-09-15T11:17:24.868Z,23.90
2022-09-15T11:20:20.565Z,24.20
2022-09-15T11:23:11.192Z,24.10
2022-09-15T11:26:05.364Z,23.80
2022-09-15T11:29:05.552Z,23.40
2022-09-15T11:31:58.681Z,23.20
2022-09-15T11:34:58.783Z,23.00
2022-09-15T11:37:51.017Z,23.10
2022-09-15T11:40:48.999Z,22.90
2022-09-15T11:43:59.607Z,23.10
2022-09-15T11:47:03.172Z,23.30
2022-09-15T11:50:00.471Z,23.60
2022-09-15T11:53:01.414Z,23.50
2022-09-15T11:56:26.270Z,23.20
2022-09-15T11:59:36.877Z,23.10
2022-09-15T12:17:06.294Z,22.70
2022-09-15T12:20:03.258Z,22.40
2022-09-15T12:23:05.385Z,22.50
2022-09-15T12:26:17.475Z,22.50
2022-09-15T12:29:27.637Z,22.20
2022-09-15T12:35:17.873Z,21.60
2022-09-15T12:38:04.938Z,20.80
2022-09-15T12:40:59.547Z,21.00
2022-09-15T12:44:05.055Z,21.40
2022-09-15T13:04:43.997Z,22.30
2022-09-15T14:59:33.211Z,23.90
2022-09-15T15:02:59.154Z,19.50
2022-09-15T15:05:58.125Z,18.80
2022-09-15T15:09:14.641Z,18.30
2022-09-15T15:12:07.229Z,17.90
2022-09-15T15:14:56.661Z,17.70
2022-09-15T15:17:51.438Z,17.70
2022-09-15T15:20:49.454Z,17.60
2022-09-15T15:23:53.890Z,17.60
2022-09-15T15:26:43.152Z,17.70
2022-09-15T15:29:44.830Z,17.80
2022-09-15T15:32:32.351Z,17.80
2022-09-15T15:35:20.742Z,17.80
2022-09-15T15:38:16.496Z,17.70
2022-09-15T15:41:06.655Z,17.70
2022-09-15T15:44:00.511Z,17.70
2022-09-15T15:46:52.307Z,17.70
2022-09-15T15:50:02.309Z,17.50
2022-09-15T15:55:39.379Z,17.40
2022-09-15T15:58:26.918Z,17.50
2022-09-15T16:01:16.743Z,17.40
2022-09-15T16:04:12.959Z,17.40
2022-09-15T16:07:01.458Z,17.50
2022-09-15T16:09:49.487Z,17.60
2022-09-15T16:12:36.518Z,17.70
2022-09-15T16:15:23.680Z,17.70
2022-09-15T16:18:11.130Z,17.80
2022-09-15T16:20:58.633Z,17.80
2022-09-15T16:23:46.203Z,17.70
2022-09-15T16:26:35.973Z,17.50
2022-09-15T16:29:28.181Z,17.40
2022-09-15T16:32:20.428Z,17.20
2022-09-15T16:35:32.721Z,17.20
2022-09-15T16:38:21.236Z,17.10
2022-09-15T16:41:26.969Z,17.10
2022-09-15T16:44:19.376Z,17.00
2022-09-15T16:47:06.865Z,16.90
2022-09-15T16:49:53.823Z,16.90
2022-09-15T16:52:40.579Z,16.80
2022-09-15T16:55:37.723Z,16.60
2022-09-15T16:58:24.879Z,16.30
2022-09-15T17:01:18.681Z,16.20
2022-09-15T17:04:16.349Z,16.20
2022-09-15T17:07:03.817Z,16.10
2022-09-15T17:09:51.245Z,16.10
2022-09-15T17:12:39.077Z,16.10
2022-09-15T17:15:30.216Z,16.10
2022-09-15T17:18:17.826Z,16.20
2022-09-15T17:21:05.005Z,16.10
2022-09-15T17:23:52.504Z,16.20
2022-09-15T17:26:39.503Z,16.30
2022-09-15T17:29:27.312Z,16.20
2022-09-15T17:32:14.307Z,16.30
2022-09-15T17:35:02.031Z,16.30
2022-09-15T17:37:49.244Z,16.40
2022-09-15T17:40:37.047Z,16.40
2022-09-15T17:43:26.582Z,16.40
2022-09-15T17:46:13.962Z,16.50
2022-09-15T17:49:01.349Z,16.40
2022-09-15T17:51:48.760Z,16.50
2022-09-15T17:54:36.194Z,16.40
2022-09-15T17:57:23.207Z,16.40
2022-09-15T18:00:12.449Z,16.40
2022-09-15T18:03:02.624Z,16.30
2022-09-15T18:05:50.726Z,16.40
2022-09-15T18:08:38.278Z,16.50
2022-09-15T18:11:27.538Z,16.50
2022-09-15T18:14:14.549Z,16.50
2022-09-15T18:17:01.366Z,16.50
2022-09-15T18:19:48.483Z,16.50
2022-09-15T18:22:35.986Z,16.40
2022-09-15T18:25:31.213Z,16.40
2022-09-15T18:28:19.146Z,16.40
2022-09-15T18:31:07.108Z,16.40
2022-09-15T18:33:54.601Z,16.40
2022-09-15T18:36:41.631Z,16.40
2022-09-15T18:39:29.818Z,16.40
2022-09-15T18:42:16.782Z,16.40
2022-09-15T18:45:05.556Z,16.40
2022-09-15T18:47:53.600Z,16.30
2022-09-15T18:50:43.602Z,16.30
2022-09-15T18:53:30.601Z,16.40
2022-09-15T18:56:17.811Z,16.40
2022-09-15T18:59:04.802Z,16.40
2022-09-15T19:01:52.416Z,16.40
2022-09-15T19:04:40.751Z,16.40
2022-09-15T19:07:28.723Z,16.40
2022-09-15T19:10:18.543Z,16.30
2022-09-15T19:13:06.418Z,16.30
2022-09-15T19:15:53.751Z,16.30
2022-09-15T19:18:40.914Z,16.40
2022-09-15T19:21:27.705Z,16.40
2022-09-15T19:24:16.505Z,16.40
2022-09-15T19:27:06.586Z,16.30
2022-09-15T19:29:53.855Z,16.40
2022-09-15T19:32:41.296Z,16.30
2022-09-15T19:35:29.934Z,16.20
2022-09-15T19:38:17.378Z,16.20
2022-09-15T19:41:11.122Z,16.20
2022-09-15T19:44:01.938Z,16.20
2022-09-15T19:46:48.875Z,16.20
2022-09-15T19:49:35.969Z,16.20
2022-09-15T19:52:23.157Z,16.20
2022-09-15T19:55:12.003Z,16.20
2022-09-15T19:57:58.989Z,16.10
2022-09-15T20:00:55.314Z,16.00
2022-09-15T20:03:42.286Z,16.10
2022-09-15T20:06:32.715Z,16.10
2022-09-15T20:09:19.971Z,16.10
2022-09-15T20:12:07.431Z,16.00
2022-09-15T20:14:54.424Z,16.00
2022-09-15T20:17:42.325Z,16.00
2022-09-15T20:20:30.244Z,16.10
2022-09-15T20:23:17.045Z,16.10
2022-09-15T20:26:08.186Z,16.00
2022-09-15T20:28:55.181Z,16.00
2022-09-15T20:31:42.947Z,16.10
2022-09-15T20:34:29.762Z,16.10
2022-09-15T20:37:16.743Z,16.10
2022-09-15T20:40:05.267Z,16.10
2022-09-15T20:42:52.658Z,16.10
2022-09-15T20:45:39.444Z,16.10
2022-09-15T20:48:28.942Z,16.10
2022-09-15T20:51:18.770Z,16.20
2022-09-15T20:54:06.491Z,16.20
2022-09-15T20:56:53.372Z,16.20
2022-09-15T20:59:40.593Z,16.10
2022-09-15T21:02:27.954Z,16.10
2022-09-15T21:05:14.994Z,16.20
2022-09-15T21:08:02.232Z,16.20
2022-09-15T21:10:49.430Z,16.20
2022-09-15T21:13:38.372Z,16.30
2022-09-15T21:16:27.863Z,16.20
2022-09-15T21:19:15.095Z,16.30
2022-09-15T21:22:02.077Z,16.30
2022-09-15T21:24:49.446Z,16.30
2022-09-15T21:27:36.510Z,16.30
2022-09-15T21:30:23.904Z,16.40
2022-09-15T21:33:10.948Z,16.30
2022-09-15T21:36:10.211Z,16.30
2022-09-15T21:38:58.650Z,16.20
2022-09-15T21:41:45.691Z,16.10
2022-09-15T21:44:34.472Z,16.70
2022-09-15T21:47:21.260Z,16.10
2022-09-15T21:50:08.918Z,16.10
2022-09-15T21:52:55.908Z,16.00
2022-09-15T21:55:43.339Z,16.00
2022-09-15T21:58:41.568Z,16.00
2022-09-15T22:01:32.290Z,15.90
2022-09-15T22:04:19.763Z,16.00
2022-09-15T22:07:07.268Z,15.90
2022-09-15T22:09:54.616Z,15.80
2022-09-15T22:12:41.408Z,15.80
2022-09-15T22:15:28.853Z,15.80
2022-09-15T22:18:16.266Z,15.80
2022-09-15T22:21:11.529Z,15.90
2022-09-15T22:23:59.514Z,15.90
2022-09-15T22:26:46.300Z,15.90
2022-09-15T22:29:33.547Z,15.90
2022-09-15T22:32:20.947Z,16.00
2022-09-15T22:35:08.793Z,15.90
2022-09-15T22:37:55.644Z,16.00
2022-09-15T22:40:42.724Z,16.00
2022-09-15T22:43:29.675Z,16.00
2022-09-15T22:46:19.226Z,15.90
2022-09-15T22:49:06.316Z,16.00
2022-09-15T22:51:53.953Z,15.90
2022-09-15T22:54:40.954Z,15.90
2022-09-15T22:57:27.972Z,15.90
2022-09-15T23:00:16.970Z,15.80
2022-09-15T23:03:04.188Z,15.80
2022-09-15T23:05:57.436Z,15.70
2022-09-15T23:08:45.015Z,15.80
2022-09-15T23:11:33.540Z,15.60
2022-09-15T23:14:20.949Z,15.60
2022-09-15T23:17:08.371Z,15.60
2022-09-15T23:19:55.768Z,15.50
2022-09-15T23:22:43.026Z,15.40
2022-09-15T23:25:30.066Z,15.50
2022-09-15T23:28:17.537Z,15.50
2022-09-15T23:31:04.674Z,15.50
2022-09-15T23:33:52.162Z,15.50
2022-09-15T23:36:39.555Z,15.70
2022-09-15T23:39:26.723Z,15.70
2022-09-15T23:42:18.667Z,15.70
2022-09-15T23:45:06.687Z,15.60
2022-09-15T23:47:53.673Z,15.40
2022-09-15T23:50:41.724Z,15.50
2022-09-15T23:53:29.553Z,15.50
2022-09-15T23:56:16.971Z,15.40
2022-09-15T23:59:03.965Z,15.40
